sensor_id;sensor_type;location;lat;lon;timestamp;P1;durP1;ratioP1;P2;durP2;ratioP2
4148;SDS011;2088;51.032;7.082;2022-10-04T00:02:01;6.63;;;2.53;;
4148;SDS011;2088;51.032;7.082;2022-10-04T00:04:33;3.37;;;3.17;;
4148;SDS011;2088;51.032;7.082;2022-10-04T00:07:13;7.87;;;3.00;;
4148;SDS011;2088;51.032;7.082;2022-10-04T00:09:44;6.50;;;3.00;;
4148;SDS011;2088;51.032;7.082;2022-10-04T00:12:15;3.97;;;3.00;;
4148;SDS011;2088;51.032;7.082;2022-10-04T00:14:45;6.23;;;3.30;;
4148;SDS011;2088;51.032;7.082;2022-10-04T00:17:13;7.70;;;3.90;;
4148;SDS011;2088;51.032;7.082;2022-10-04T00:19:50;3.43;;;2.30;;
4148;SDS011;2088;51.032;7.082;2022-10-04T00:22:18;4.87;;;3.33;;
4148;SDS011;2088;51.032;7.082;2022-10-04T00:31:12;6.47;;;2.83;;
4148;SDS011;2088;51.032;7.082;2022-10-04T00:33:40;8.70;;;2.70;;
4148;SDS011;2088;51.032;7.082;2022-10-04T00:42:07;6.77;;;3.10;;
4148;SDS011;2088;51.032;7.082;2022-10-04T00:44:43;6.27;;;2.60;;
4148;SDS011;2088;51.032;7.082;2022-10-04T00:47:18;6.70;;;3.30;;
4148;SDS011;2088;51.032;7.082;2022-10-04T00:49:50;4.77;;;2.67;;
4148;SDS011;2088;51.032;7.082;2022-10-04T00:52:23;9.83;;;3.50;;
4148;SDS011;2088;51.032;7.082;2022-10-04T00:54:54;9.73;;;4.00;;
4148;SDS011;2088;51.032;7.082;2022-10-04T00:57:24;8.33;;;3.57;;
4148;SDS011;2088;51.032;7.082;2022-10-04T00:59:56;12.23;;;2.97;;
4148;SDS011;2088;51.032;7.082;2022-10-04T01:02:28;2.90;;;2.40;;
4148;SDS011;2088;51.032;7.082;2022-10-04T01:04:59;4.90;;;3.00;;
4148;SDS011;2088;51.032;7.082;2022-10-04T01:07:29;5.00;;;4.10;;
4148;SDS011;2088;51.032;7.082;2022-10-04T01:10:03;4.47;;;2.40;;
4148;SDS011;2088;51.032;7.082;2022-10-04T01:12:37;5.57;;;2.83;;
4148;SDS011;2088;51.032;7.082;2022-10-04T01:15:11;5.63;;;2.10;;
4148;SDS011;2088;51.032;7.082;2022-10-04T01:17:56;4.40;;;2.93;;
4148;SDS011;2088;51.032;7.082;2022-10-04T01:20:32;22.23;;;3.90;;
4148;SDS011;2088;51.032;7.082;2022-10-04T01:23:01;3.50;;;3.10;;
4148;SDS011;2088;51.032;7.082;2022-10-04T01:25:42;7.80;;;3.13;;
4148;SDS011;2088;51.032;7.082;2022-10-04T01:28:11;5.60;;;2.83;;
4148;SDS011;2088;51.032;7.082;2022-10-04T01:30:38;6.17;;;2.97;;
4148;SDS011;2088;51.032;7.082;2022-10-04T01:33:04;5.43;;;2.50;;
4148;SDS011;2088;51.032;7.082;2022-10-04T01:35:32;4.37;;;2.70;;
4148;SDS011;2088;51.032;7.082;2022-10-04T01:38:01;9.47;;;4.53;;
4148;SDS011;2088;51.032;7.082;2022-10-04T01:40:30;4.57;;;2.80;;
4148;SDS011;2088;51.032;7.082;2022-10-04T01:42:58;5.00;;;3.40;;
4148;SDS011;2088;51.032;7.082;2022-10-04T01:45:29;9.53;;;3.97;;
4148;SDS011;2088;51.032;7.082;2022-10-04T01:48:01;3.37;;;3.00;;
4148;SDS011;2088;51.032;7.082;2022-10-04T01:50:31;6.00;;;3.70;;
4148;SDS011;2088;51.032;7.082;2022-10-04T01:53:05;6.63;;;3.30;;
4148;SDS011;2088;51.032;7.082;2022-10-04T01:55:38;4.73;;;3.20;;
4148;SDS011;2088;51.032;7.082;2022-10-04T01:58:09;11.70;;;3.13;;
4148;SDS011;2088;51.032;7.082;2022-10-04T02:00:41;12.30;;;3.90;;
4148;SDS011;2088;51.032;7.082;2022-10-04T02:03:14;8.20;;;3.10;;
4148;SDS011;2088;51.032;7.082;2022-10-04T02:05:46;5.33;;;3.30;;
4148;SDS011;2088;51.032;7.082;2022-10-04T02:08:20;6.60;;;2.73;;
4148;SDS011;2088;51.032;7.082;2022-10-04T02:10:50;4.90;;;3.07;;
4148;SDS011;2088;51.032;7.082;2022-10-04T02:13:19;5.47;;;3.13;;
4148;SDS011;2088;51.032;7.082;2022-10-04T02:15:48;3.60;;;2.80;;
4148;SDS011;2088;51.032;7.082;2022-10-04T02:18:15;3.97;;;3.47;;
4148;SDS011;2088;51.032;7.082;2022-10-04T02:20:44;5.43;;;2.60;;
4148;SDS011;2088;51.032;7.082;2022-10-04T02:23:15;7.60;;;2.87;;
4148;SDS011;2088;51.032;7.082;2022-10-04T02:25:44;3.30;;;2.30;;
4148;SDS011;2088;51.032;7.082;2022-10-04T02:28:11;5.17;;;3.30;;
4148;SDS011;2088;51.032;7.082;2022-10-04T02:30:40;14.33;;;2.80;;
4148;SDS011;2088;51.032;7.082;2022-10-04T02:33:29;8.97;;;5.00;;
4148;SDS011;2088;51.032;7.082;2022-10-04T02:35:54;4.77;;;2.50;;
4148;SDS011;2088;51.032;7.082;2022-10-04T02:38:22;7.37;;;3.50;;
4148;SDS011;2088;51.032;7.082;2022-10-04T02:40:58;5.80;;;4.20;;
4148;SDS011;2088;51.032;7.082;2022-10-04T02:43:31;7.50;;;2.87;;
4148;SDS011;2088;51.032;7.082;2022-10-04T02:46:04;6.23;;;3.90;;
4148;SDS011;2088;51.032;7.082;2022-10-04T02:48:36;5.93;;;2.70;;
4148;SDS011;2088;51.032;7.082;2022-10-04T02:51:17;2.60;;;2.17;;
4148;SDS011;2088;51.032;7.082;2022-10-04T02:53:49;4.73;;;4.20;;
4148;SDS011;2088;51.032;7.082;2022-10-04T02:56:23;5.57;;;3.07;;
4148;SDS011;2088;51.032;7.082;2022-10-04T02:58:50;9.07;;;2.60;;
4148;SDS011;2088;51.032;7.082;2022-10-04T03:01:23;17.50;;;3.50;;
4148;SDS011;2088;51.032;7.082;2022-10-04T03:03:51;6.00;;;3.47;;
4148;SDS011;2088;51.032;7.082;2022-10-04T03:06:20;4.13;;;3.73;;
4148;SDS011;2088;51.032;7.082;2022-10-04T03:08:49;2.90;;;2.30;;
4148;SDS011;2088;51.032;7.082;2022-10-04T03:11:19;6.50;;;3.80;;
4148;SDS011;2088;51.032;7.082;2022-10-04T03:13:49;6.23;;;3.00;;
4148;SDS011;2088;51.032;7.082;2022-10-04T03:16:19;7.60;;;4.43;;
4148;SDS011;2088;51.032;7.082;2022-10-04T03:18:46;10.20;;;3.30;;
4148;SDS011;2088;51.032;7.082;2022-10-04T03:21:15;4.50;;;2.50;;
4148;SDS011;2088;51.032;7.082;2022-10-04T03:23:43;8.07;;;3.40;;
4148;SDS011;2088;51.032;7.082;2022-10-04T03:26:15;5.47;;;2.60;;
4148;SDS011;2088;51.032;7.082;2022-10-04T03:28:50;4.83;;;2.70;;
4148;SDS011;2088;51.032;7.082;2022-10-04T03:31:17;7.07;;;3.53;;
4148;SDS011;2088;51.032;7.082;2022-10-04T03:33:44;10.93;;;3.37;;
4148;SDS011;2088;51.032;7.082;2022-10-04T03:36:12;9.73;;;2.50;;
4148;SDS011;2088;51.032;7.082;2022-10-04T03:38:42;3.30;;;2.40;;
4148;SDS011;2088;51.032;7.082;2022-10-04T03:41:09;9.43;;;4.47;;
4148;SDS011;2088;51.032;7.082;2022-10-04T03:43:39;7.80;;;4.50;;
4148;SDS011;2088;51.032;7.082;2022-10-04T03:46:10;15.40;;;2.93;;
4148;SDS011;2088;51.032;7.082;2022-10-04T03:48:40;3.13;;;2.87;;
4148;SDS011;2088;51.032;7.082;2022-10-04T03:51:11;8.90;;;3.23;;
4148;SDS011;2088;51.032;7.082;2022-10-04T03:53:40;4.80;;;2.07;;
4148;SDS011;2088;51.032;7.082;2022-10-04T03:56:10;6.60;;;1.93;;
4148;SDS011;2088;51.032;7.082;2022-10-04T03:58:38;3.37;;;2.20;;
4148;SDS011;2088;51.032;7.082;2022-10-04T04:01:11;5.00;;;3.63;;
4148;SDS011;2088;51.032;7.082;2022-10-04T04:04:00;5.57;;;2.80;;
4148;SDS011;2088;51.032;7.082;2022-10-04T04:06:33;3.53;;;2.30;;
4148;SDS011;2088;51.032;7.082;2022-10-04T04:09:06;4.60;;;2.60;;
4148;SDS011;2088;51.032;7.082;2022-10-04T04:11:34;4.23;;;3.00;;
4148;SDS011;2088;51.032;7.082;2022-10-04T04:14:02;6.00;;;3.13;;
4148;SDS011;2088;51.032;7.082;2022-10-04T04:16:36;7.00;;;2.93;;
4148;SDS011;2088;51.032;7.082;2022-10-04T04:19:06;3.37;;;2.53;;
4148;SDS011;2088;51.032;7.082;2022-10-04T04:21:37;5.73;;;2.37;;
4148;SDS011;2088;51.032;7.082;2022-10-04T04:24:05;4.47;;;3.33;;
4148;SDS011;2088;51.032;7.082;2022-10-04T04:26:39;6.23;;;3.13;;
4148;SDS011;2088;51.032;7.082;2022-10-04T04:29:10;9.70;;;3.90;;
4148;SDS011;2088;51.032;7.082;2022-10-04T04:31:44;3.50;;;3.20;;
4148;SDS011;2088;51.032;7.082;2022-10-04T04:34:18;5.63;;;3.10;;
4148;SDS011;2088;51.032;7.082;2022-10-04T04:36:46;3.90;;;2.50;;
4148;SDS011;2088;51.032;7.082;2022-10-04T04:39:14;6.83;;;3.53;;
4148;SDS011;2088;51.032;7.082;2022-10-04T04:42:03;3.70;;;2.50;;
4148;SDS011;2088;51.032;7.082;2022-10-04T04:44:32;7.60;;;4.03;;
4148;SDS011;2088;51.032;7.082;2022-10-04T04:47:01;2.70;;;2.50;;
4148;SDS011;2088;51.032;7.082;2022-10-04T04:49:35;4.70;;;2.77;;
4148;SDS011;2088;51.032;7.082;2022-10-04T04:52:03;5.90;;;2.80;;
4148;SDS011;2088;51.032;7.082;2022-10-04T04:54:30;6.17;;;2.50;;
4148;SDS011;2088;51.032;7.082;2022-10-04T04:56:58;8.33;;;2.83;;
4148;SDS011;2088;51.032;7.082;2022-10-04T04:59:25;3.17;;;2.87;;
4148;SDS011;2088;51.032;7.082;2022-10-04T05:01:52;6.00;;;2.77;;
4148;SDS011;2088;51.032;7.082;2022-10-04T05:04:20;8.50;;;2.60;;
4148;SDS011;2088;51.032;7.082;2022-10-04T05:06:57;7.37;;;3.30;;
4148;SDS011;2088;51.032;7.082;2022-10-04T05:09:27;3.07;;;2.40;;
4148;SDS011;2088;51.032;7.082;2022-10-04T05:11:56;3.90;;;2.47;;
4148;SDS011;2088;51.032;7.082;2022-10-04T05:14:28;3.50;;;3.20;;
4148;SDS011;2088;51.032;7.082;2022-10-04T05:16:55;3.83;;;2.43;;
4148;SDS011;2088;51.032;7.082;2022-10-04T05:19:25;5.00;;;3.80;;
4148;SDS011;2088;51.032;7.082;2022-10-04T05:21:55;5.90;;;3.03;;
4148;SDS011;2088;51.032;7.082;2022-10-04T05:24:24;5.60;;;3.77;;
4148;SDS011;2088;51.032;7.082;2022-10-04T05:26:54;6.00;;;3.07;;
4148;SDS011;2088;51.032;7.082;2022-10-04T05:29:23;3.60;;;2.70;;
4148;SDS011;2088;51.032;7.082;2022-10-04T05:31:55;5.63;;;2.37;;
4148;SDS011;2088;51.032;7.082;2022-10-04T05:34:30;10.63;;;4.60;;
4148;SDS011;2088;51.032;7.082;2022-10-04T05:37:04;7.20;;;2.97;;
4148;SDS011;2088;51.032;7.082;2022-10-04T05:39:53;4.20;;;2.80;;
4148;SDS011;2088;51.032;7.082;2022-10-04T05:42:32;7.90;;;4.70;;
4148;SDS011;2088;51.032;7.082;2022-10-04T05:45:10;7.83;;;4.37;;
4148;SDS011;2088;51.032;7.082;2022-10-04T05:47:39;2.97;;;2.70;;
4148;SDS011;2088;51.032;7.082;2022-10-04T05:50:13;11.93;;;3.93;;
4148;SDS011;2088;51.032;7.082;2022-10-04T05:52:43;4.43;;;3.50;;
4148;SDS011;2088;51.032;7.082;2022-10-04T05:55:21;22.63;;;4.33;;
4148;SDS011;2088;51.032;7.082;2022-10-04T05:58:04;4.07;;;2.43;;
4148;SDS011;2088;51.032;7.082;2022-10-04T06:00:44;2.30;;;1.87;;
4148;SDS011;2088;51.032;7.082;2022-10-04T06:03:29;3.40;;;2.40;;
4148;SDS011;2088;51.032;7.082;2022-10-04T06:06:13;5.80;;;2.30;;
4148;SDS011;2088;51.032;7.082;2022-10-04T06:08:47;4.80;;;3.30;;
4148;SDS011;2088;51.032;7.082;2022-10-04T06:11:25;7.77;;;3.03;;
4148;SDS011;2088;51.032;7.082;2022-10-04T06:14:14;2.83;;;2.47;;
4148;SDS011;2088;51.032;7.082;2022-10-04T06:16:59;3.20;;;2.10;;
4148;SDS011;2088;51.032;7.082;2022-10-04T06:19:55;4.40;;;2.83;;
4148;SDS011;2088;51.032;7.082;2022-10-04T06:22:39;5.00;;;2.60;;
4148;SDS011;2088;51.032;7.082;2022-10-04T06:25:09;7.57;;;3.50;;
4148;SDS011;2088;51.032;7.082;2022-10-04T06:27:41;4.63;;;3.37;;
4148;SDS011;2088;51.032;7.082;2022-10-04T06:30:14;5.33;;;2.43;;
4148;SDS011;2088;51.032;7.082;2022-10-04T06:32:55;11.40;;;2.30;;
4148;SDS011;2088;51.032;7.082;2022-10-04T06:35:35;2.90;;;2.20;;
4148;SDS011;2088;51.032;7.082;2022-10-04T06:38:18;3.30;;;2.20;;
4148;SDS011;2088;51.032;7.082;2022-10-04T06:41:15;7.93;;;2.20;;
4148;SDS011;2088;51.032;7.082;2022-10-04T06:43:56;4.60;;;3.00;;
4148;SDS011;2088;51.032;7.082;2022-10-04T06:46:33;6.97;;;3.17;;
4148;SDS011;2088;51.032;7.082;2022-10-04T06:52:04;2.63;;;2.43;;
4148;SDS011;2088;51.032;7.082;2022-10-04T06:54:56;9.13;;;2.40;;
4148;SDS011;2088;51.032;7.082;2022-10-04T06:57:51;3.57;;;2.37;;
4148;SDS011;2088;51.032;7.082;2022-10-04T07:00:33;4.23;;;2.83;;
4148;SDS011;2088;51.032;7.082;2022-10-04T07:03:08;4.50;;;2.93;;
4148;SDS011;2088;51.032;7.082;2022-10-04T07:05:41;5.90;;;3.47;;
4148;SDS011;2088;51.032;7.082;2022-10-04T07:08:13;3.33;;;2.60;;
4148;SDS011;2088;51.032;7.082;2022-10-04T07:10:57;3.77;;;2.70;;
4148;SDS011;2088;51.032;7.082;2022-10-04T07:13:30;3.57;;;2.73;;
4148;SDS011;2088;51.032;7.082;2022-10-04T07:16:07;4.83;;;2.67;;
4148;SDS011;2088;51.032;7.082;2022-10-04T07:18:49;8.23;;;5.00;;
4148;SDS011;2088;51.032;7.082;2022-10-04T07:21:22;5.07;;;2.90;;
4148;SDS011;2088;51.032;7.082;2022-10-04T07:23:52;3.37;;;2.23;;
4148;SDS011;2088;51.032;7.082;2022-10-04T07:26:24;2.90;;;2.53;;
4148;SDS011;2088;51.032;7.082;2022-10-04T07:28:54;4.30;;;1.83;;
4148;SDS011;2088;51.032;7.082;2022-10-04T07:31:42;4.40;;;2.73;;
4148;SDS011;2088;51.032;7.082;2022-10-04T07:34:13;7.63;;;2.63;;
4148;SDS011;2088;51.032;7.082;2022-10-04T07:36:47;3.47;;;2.27;;
4148;SDS011;2088;51.032;7.082;2022-10-04T07:39:17;3.50;;;2.50;;
4148;SDS011;2088;51.032;7.082;2022-10-04T07:41:50;5.80;;;2.30;;
4148;SDS011;2088;51.032;7.082;2022-10-04T07:44:22;4.13;;;3.03;;
4148;SDS011;2088;51.032;7.082;2022-10-04T07:46:57;9.80;;;3.17;;
4148;SDS011;2088;51.032;7.082;2022-10-04T07:49:27;5.30;;;3.23;;
4148;SDS011;2088;51.032;7.082;2022-10-04T07:52:01;7.27;;;3.73;;
4148;SDS011;2088;51.032;7.082;2022-10-04T07:54:36;2.53;;;1.80;;
4148;SDS011;2088;51.032;7.082;2022-10-04T07:57:10;5.43;;;2.27;;
4148;SDS011;2088;51.032;7.082;2022-10-04T07:59:43;6.30;;;2.83;;
4148;SDS011;2088;51.032;7.082;2022-10-04T08:02:20;8.90;;;3.17;;
4148;SDS011;2088;51.032;7.082;2022-10-04T08:04:59;6.23;;;2.87;;
4148;SDS011;2088;51.032;7.082;2022-10-04T08:07:41;6.07;;;2.67;;
4148;SDS011;2088;51.032;7.082;2022-10-04T08:10:22;4.93;;;3.50;;
4148;SDS011;2088;51.032;7.082;2022-10-04T08:12:59;6.53;;;3.00;;
4148;SDS011;2088;51.032;7.082;2022-10-04T08:15:33;3.40;;;2.73;;
4148;SDS011;2088;51.032;7.082;2022-10-04T08:18:04;5.00;;;2.60;;
4148;SDS011;2088;51.032;7.082;2022-10-04T08:20:38;2.50;;;1.90;;
4148;SDS011;2088;51.032;7.082;2022-10-04T08:23:19;4.43;;;3.60;;
4148;SDS011;2088;51.032;7.082;2022-10-04T08:26:02;3.60;;;1.80;;
4148;SDS011;2088;51.032;7.082;2022-10-04T08:28:44;3.93;;;2.10;;
4148;SDS011;2088;51.032;7.082;2022-10-04T08:31:37;3.57;;;2.60;;
4148;SDS011;2088;51.032;7.082;2022-10-04T08:34:14;7.20;;;3.03;;
4148;SDS011;2088;51.032;7.082;2022-10-04T08:36:55;5.67;;;2.30;;
4148;SDS011;2088;51.032;7.082;2022-10-04T08:39:47;2.77;;;2.37;;
4148;SDS011;2088;51.032;7.082;2022-10-04T08:42:27;7.50;;;2.27;;
4148;SDS011;2088;51.032;7.082;2022-10-04T08:52:15;2.47;;;2.27;;
4148;SDS011;2088;51.032;7.082;2022-10-04T08:58:13;13.37;;;2.77;;
4148;SDS011;2088;51.032;7.082;2022-10-04T09:00:57;6.77;;;3.40;;
4148;SDS011;2088;51.032;7.082;2022-10-04T09:03:52;4.77;;;2.90;;
4148;SDS011;2088;51.032;7.082;2022-10-04T09:06:52;5.33;;;2.67;;
4148;SDS011;2088;51.032;7.082;2022-10-04T09:09:33;6.63;;;1.93;;
4148;SDS011;2088;51.032;7.082;2022-10-04T09:15:23;4.67;;;2.67;;
4148;SDS011;2088;51.032;7.082;2022-10-04T09:18:00;4.50;;;2.33;;
4148;SDS011;2088;51.032;7.082;2022-10-04T09:20:40;3.00;;;2.23;;
4148;SDS011;2088;51.032;7.082;2022-10-04T09:23:22;3.57;;;1.90;;
4148;SDS011;2088;51.032;7.082;2022-10-04T09:26:18;6.60;;;2.00;;
4148;SDS011;2088;51.032;7.082;2022-10-04T09:29:03;2.60;;;1.90;;
4148;SDS011;2088;51.032;7.082;2022-10-04T09:31:57;2.17;;;2.00;;
4148;SDS011;2088;51.032;7.082;2022-10-04T09:34:39;4.97;;;2.30;;
4148;SDS011;2088;51.032;7.082;2022-10-04T09:37:23;4.00;;;2.10;;
4148;SDS011;2088;51.032;7.082;2022-10-04T09:40:20;3.17;;;2.17;;
4148;SDS011;2088;51.032;7.082;2022-10-04T09:43:20;4.23;;;2.27;;
4148;SDS011;2088;51.032;7.082;2022-10-04T09:46:06;4.40;;;2.40;;
4148;SDS011;2088;51.032;7.082;2022-10-04T09:48:40;2.93;;;1.90;;
4148;SDS011;2088;51.032;7.082;2022-10-04T09:51:28;7.00;;;1.97;;
4148;SDS011;2088;51.032;7.082;2022-10-04T09:54:13;3.60;;;1.60;;
4148;SDS011;2088;51.032;7.082;2022-10-04T09:57:02;5.77;;;2.33;;
4148;SDS011;2088;51.032;7.082;2022-10-04T10:02:34;5.43;;;1.53;;
4148;SDS011;2088;51.032;7.082;2022-10-04T10:08:14;5.47;;;2.13;;
4148;SDS011;2088;51.032;7.082;2022-10-04T10:10:53;5.93;;;2.60;;
4148;SDS011;2088;51.032;7.082;2022-10-04T10:14:04;2.83;;;2.10;;
4148;SDS011;2088;51.032;7.082;2022-10-04T10:16:47;3.20;;;1.77;;
4148;SDS011;2088;51.032;7.082;2022-10-04T10:19:38;5.70;;;2.63;;
4148;SDS011;2088;51.032;7.082;2022-10-04T10:22:27;6.47;;;3.73;;
4148;SDS011;2088;51.032;7.082;2022-10-04T10:25:11;3.67;;;2.00;;
4148;SDS011;2088;51.032;7.082;2022-10-04T10:28:00;4.23;;;1.87;;
4148;SDS011;2088;51.032;7.082;2022-10-04T10:30:44;5.00;;;2.27;;
4148;SDS011;2088;51.032;7.082;2022-10-04T10:33:28;3.53;;;2.30;;
4148;SDS011;2088;51.032;7.082;2022-10-04T10:36:43;3.23;;;2.57;;
4148;SDS011;2088;51.032;7.082;2022-10-04T10:39:22;2.67;;;1.60;;
4148;SDS011;2088;51.032;7.082;2022-10-04T10:45:15;2.40;;;1.80;;
4148;SDS011;2088;51.032;7.082;2022-10-04T10:47:50;4.10;;;1.63;;
4148;SDS011;2088;51.032;7.082;2022-10-04T10:56:29;1.50;;;1.40;;
4148;SDS011;2088;51.032;7.082;2022-10-04T10:59:06;1.90;;;1.43;;
4148;SDS011;2088;51.032;7.082;2022-10-04T11:02:02;5.60;;;1.37;;
4148;SDS011;2088;51.032;7.082;2022-10-04T11:04:51;4.37;;;1.30;;
4148;SDS011;2088;51.032;7.082;2022-10-04T11:07:42;1.67;;;1.50;;
4148;SDS011;2088;51.032;7.082;2022-10-04T11:28:23;2.50;;;1.43;;
4148;SDS011;2088;51.032;7.082;2022-10-04T11:31:10;4.17;;;1.67;;
4148;SDS011;2088;51.032;7.082;2022-10-04T11:36:55;7.23;;;1.60;;
4148;SDS011;2088;51.032;7.082;2022-10-04T11:42:27;3.27;;;1.30;;
4148;SDS011;2088;51.032;7.082;2022-10-04T11:45:19;4.30;;;2.10;;
4148;SDS011;2088;51.032;7.082;2022-10-04T11:48:00;3.93;;;1.57;;
4148;SDS011;2088;51.032;7.082;2022-10-04T11:50:42;2.60;;;1.47;;
4148;SDS011;2088;51.032;7.082;2022-10-04T11:56:36;1.93;;;1.73;;
4148;SDS011;2088;51.032;7.082;2022-10-04T11:59:18;2.90;;;1.57;;
4148;SDS011;2088;51.032;7.082;2022-10-04T12:02:03;4.13;;;1.50;;
4148;SDS011;2088;51.032;7.082;2022-10-04T12:04:49;6.00;;;1.40;;
4148;SDS011;2088;51.032;7.082;2022-10-04T12:07:26;3.87;;;2.00;;
4148;SDS011;2088;51.032;7.082;2022-10-04T12:13:04;11.30;;;2.70;;
4148;SDS011;2088;51.032;7.082;2022-10-04T12:15:58;2.57;;;1.43;;
4148;SDS011;2088;51.032;7.082;2022-10-04T12:18:42;2.83;;;1.57;;
4148;SDS011;2088;51.032;7.082;2022-10-04T12:21:36;3.93;;;1.60;;
4148;SDS011;2088;51.032;7.082;2022-10-04T12:24:36;3.20;;;1.50;;
4148;SDS011;2088;51.032;7.082;2022-10-04T12:27:29;5.23;;;1.73;;
4148;SDS011;2088;51.032;7.082;2022-10-04T12:30:21;1.40;;;1.10;;
4148;SDS011;2088;51.032;7.082;2022-10-04T12:32:59;2.57;;;1.47;;
4148;SDS011;2088;51.032;7.082;2022-10-04T12:35:39;2.07;;;1.40;;
4148;SDS011;2088;51.032;7.082;2022-10-04T12:38:23;1.87;;;1.47;;
4148;SDS011;2088;51.032;7.082;2022-10-04T12:41:02;2.53;;;1.67;;
4148;SDS011;2088;51.032;7.082;2022-10-04T12:43:41;2.47;;;1.70;;
4148;SDS011;2088;51.032;7.082;2022-10-04T12:46:15;4.07;;;1.73;;
4148;SDS011;2088;51.032;7.082;2022-10-04T12:49:10;2.80;;;1.47;;
4148;SDS011;2088;51.032;7.082;2022-10-04T12:51:48;2.40;;;1.40;;
4148;SDS011;2088;51.032;7.082;2022-10-04T12:54:25;1.30;;;1.20;;
4148;SDS011;2088;51.032;7.082;2022-10-04T12:57:03;1.70;;;1.13;;
4148;SDS011;2088;51.032;7.082;2022-10-04T12:59:42;2.03;;;1.53;;
4148;SDS011;2088;51.032;7.082;2022-10-04T13:02:25;4.50;;;1.67;;
4148;SDS011;2088;51.032;7.082;2022-10-04T13:05:02;2.57;;;1.20;;
4148;SDS011;2088;51.032;7.082;2022-10-04T13:07:43;3.30;;;1.23;;
4148;SDS011;2088;51.032;7.082;2022-10-04T13:10:33;4.03;;;1.60;;
4148;SDS011;2088;51.032;7.082;2022-10-04T13:13:23;5.63;;;1.63;;
4148;SDS011;2088;51.032;7.082;2022-10-04T13:16:00;3.30;;;1.43;;
4148;SDS011;2088;51.032;7.082;2022-10-04T13:18:35;7.23;;;1.67;;
4148;SDS011;2088;51.032;7.082;2022-10-04T13:21:13;6.07;;;1.80;;
4148;SDS011;2088;51.032;7.082;2022-10-04T13:23:49;7.50;;;2.17;;
4148;SDS011;2088;51.032;7.082;2022-10-04T13:26:27;1.57;;;1.10;;
4148;SDS011;2088;51.032;7.082;2022-10-04T13:29:02;2.93;;;1.30;;
4148;SDS011;2088;51.032;7.082;2022-10-04T13:31:35;2.17;;;1.13;;
4148;SDS011;2088;51.032;7.082;2022-10-04T13:34:09;1.70;;;1.13;;
4148;SDS011;2088;51.032;7.082;2022-10-04T13:36:49;3.20;;;1.20;;
4148;SDS011;2088;51.032;7.082;2022-10-04T13:39:38;5.63;;;1.50;;
4148;SDS011;2088;51.032;7.082;2022-10-04T13:42:24;2.30;;;1.10;;
4148;SDS011;2088;51.032;7.082;2022-10-04T13:45:14;2.27;;;1.00;;
4148;SDS011;2088;51.032;7.082;2022-10-04T13:50:57;3.07;;;1.20;;
4148;SDS011;2088;51.032;7.082;2022-10-04T13:53:50;2.07;;;1.20;;
4148;SDS011;2088;51.032;7.082;2022-10-04T13:56:49;2.50;;;1.50;;
4148;SDS011;2088;51.032;7.082;2022-10-04T13:59:26;2.37;;;1.10;;
4148;SDS011;2088;51.032;7.082;2022-10-04T14:02:10;4.13;;;1.60;;
4148;SDS011;2088;51.032;7.082;2022-10-04T14:04:58;2.07;;;1.20;;
4148;SDS011;2088;51.032;7.082;2022-10-04T14:08:04;4.80;;;1.77;;
4148;SDS011;2088;51.032;7.082;2022-10-04T14:11:00;3.50;;;1.70;;
4148;SDS011;2088;51.032;7.082;2022-10-04T14:13:57;3.03;;;1.27;;
4148;SDS011;2088;51.032;7.082;2022-10-04T14:17:07;1.43;;;1.00;;
4148;SDS011;2088;51.032;7.082;2022-10-04T14:19:52;2.67;;;1.43;;
4148;SDS011;2088;51.032;7.082;2022-10-04T14:29:22;7.83;;;1.20;;
4148;SDS011;2088;51.032;7.082;2022-10-04T14:35:29;1.63;;;1.10;;
4148;SDS011;2088;51.032;7.082;2022-10-04T14:41:21;2.87;;;1.57;;
4148;SDS011;2088;51.032;7.082;2022-10-04T14:47:17;3.60;;;1.93;;
4148;SDS011;2088;51.032;7.082;2022-10-04T14:50:00;4.30;;;1.10;;
4148;SDS011;2088;51.032;7.082;2022-10-04T14:52:38;1.20;;;1.10;;
4148;SDS011;2088;51.032;7.082;2022-10-04T14:55:21;2.00;;;1.50;;
4148;SDS011;2088;51.032;7.082;2022-10-04T14:58:05;2.13;;;1.43;;
4148;SDS011;2088;51.032;7.082;2022-10-04T15:00:52;2.33;;;1.40;;
4148;SDS011;2088;51.032;7.082;2022-10-04T15:03:30;1.97;;;1.40;;
4148;SDS011;2088;51.032;7.082;2022-10-04T15:06:10;3.47;;;1.40;;
4148;SDS011;2088;51.032;7.082;2022-10-04T15:11:39;3.67;;;1.13;;
4148;SDS011;2088;51.032;7.082;2022-10-04T15:14:19;5.73;;;1.37;;
4148;SDS011;2088;51.032;7.082;2022-10-04T15:16:51;2.30;;;1.80;;
4148;SDS011;2088;51.032;7.082;2022-10-04T15:19:24;7.13;;;2.00;;
4148;SDS011;2088;51.032;7.082;2022-10-04T15:21:58;3.97;;;1.60;;
4148;SDS011;2088;51.032;7.082;2022-10-04T15:24:29;2.77;;;1.60;;
4148;SDS011;2088;51.032;7.082;2022-10-04T15:30:18;4.90;;;1.77;;
4148;SDS011;2088;51.032;7.082;2022-10-04T15:32:49;2.70;;;1.60;;
4148;SDS011;2088;51.032;7.082;2022-10-04T15:35:33;1.60;;;1.20;;
4148;SDS011;2088;51.032;7.082;2022-10-04T15:38:13;2.33;;;1.43;;
4148;SDS011;2088;51.032;7.082;2022-10-04T15:40:53;6.40;;;1.50;;
4148;SDS011;2088;51.032;7.082;2022-10-04T15:43:28;3.10;;;1.30;;
4148;SDS011;2088;51.032;7.082;2022-10-04T15:46:02;3.10;;;1.87;;
4148;SDS011;2088;51.032;7.082;2022-10-04T15:49:06;6.53;;;1.80;;
4148;SDS011;2088;51.032;7.082;2022-10-04T15:51:47;2.10;;;1.30;;
4148;SDS011;2088;51.032;7.082;2022-10-04T15:57:34;2.67;;;1.60;;
4148;SDS011;2088;51.032;7.082;2022-10-04T16:00:19;2.27;;;1.40;;
4148;SDS011;2088;51.032;7.082;2022-10-04T16:02:50;3.63;;;1.90;;
4148;SDS011;2088;51.032;7.082;2022-10-04T16:05:28;1.97;;;1.30;;
4148;SDS011;2088;51.032;7.082;2022-10-04T16:08:16;2.03;;;1.57;;
4148;SDS011;2088;51.032;7.082;2022-10-04T16:10:57;13.30;;;1.90;;
4148;SDS011;2088;51.032;7.082;2022-10-04T16:13:37;2.40;;;1.53;;
4148;SDS011;2088;51.032;7.082;2022-10-04T16:19:18;2.83;;;1.90;;
4148;SDS011;2088;51.032;7.082;2022-10-04T16:22:07;5.63;;;1.67;;
4148;SDS011;2088;51.032;7.082;2022-10-04T16:24:45;3.17;;;2.03;;
4148;SDS011;2088;51.032;7.082;2022-10-04T16:27:24;3.90;;;1.90;;
4148;SDS011;2088;51.032;7.082;2022-10-04T16:30:12;2.20;;;1.60;;
4148;SDS011;2088;51.032;7.082;2022-10-04T16:32:44;6.37;;;1.87;;
4148;SDS011;2088;51.032;7.082;2022-10-04T16:35:26;3.50;;;2.03;;
4148;SDS011;2088;51.032;7.082;2022-10-04T16:37:58;1.80;;;1.70;;
4148;SDS011;2088;51.032;7.082;2022-10-04T16:40:33;3.10;;;1.90;;
4148;SDS011;2088;51.032;7.082;2022-10-04T16:43:04;3.13;;;2.13;;
4148;SDS011;2088;51.032;7.082;2022-10-04T16:45:37;3.40;;;2.40;;
4148;SDS011;2088;51.032;7.082;2022-10-04T16:48:20;3.30;;;2.43;;
4148;SDS011;2088;51.032;7.082;2022-10-04T16:51:02;2.33;;;2.13;;
4148;SDS011;2088;51.032;7.082;2022-10-04T16:53:52;5.80;;;2.10;;
4148;SDS011;2088;51.032;7.082;2022-10-04T16:56:26;2.90;;;2.03;;
4148;SDS011;2088;51.032;7.082;2022-10-04T16:58:56;4.10;;;2.33;;
4148;SDS011;2088;51.032;7.082;2022-10-04T17:01:28;5.67;;;2.37;;
4148;SDS011;2088;51.032;7.082;2022-10-04T17:04:06;4.40;;;3.90;;
4148;SDS011;2088;51.032;7.082;2022-10-04T17:06:45;3.10;;;1.80;;
4148;SDS011;2088;51.032;7.082;2022-10-04T17:09:17;6.47;;;2.50;;
4148;SDS011;2088;51.032;7.082;2022-10-04T17:11:57;2.03;;;1.87;;
4148;SDS011;2088;51.032;7.082;2022-10-04T17:15:04;3.20;;;2.60;;
4148;SDS011;2088;51.032;7.082;2022-10-04T17:17:49;4.80;;;2.03;;
4148;SDS011;2088;51.032;7.082;2022-10-04T17:20:25;5.90;;;2.63;;
4148;SDS011;2088;51.032;7.082;2022-10-04T17:22:58;3.83;;;2.53;;
4148;SDS011;2088;51.032;7.082;2022-10-04T17:25:37;3.30;;;2.47;;
4148;SDS011;2088;51.032;7.082;2022-10-04T17:28:16;4.77;;;2.27;;
4148;SDS011;2088;51.032;7.082;2022-10-04T17:30:54;3.50;;;2.13;;
4148;SDS011;2088;51.032;7.082;2022-10-04T17:33:29;2.67;;;1.80;;
4148;SDS011;2088;51.032;7.082;2022-10-04T17:36:24;3.47;;;2.63;;
4148;SDS011;2088;51.032;7.082;2022-10-04T17:39:00;4.83;;;2.50;;
4148;SDS011;2088;51.032;7.082;2022-10-04T17:41:41;3.10;;;2.23;;
4148;SDS011;2088;51.032;7.082;2022-10-04T17:44:24;4.23;;;2.20;;
4148;SDS011;2088;51.032;7.082;2022-10-04T17:47:00;2.40;;;2.20;;
4148;SDS011;2088;51.032;7.082;2022-10-04T17:49:34;3.30;;;1.97;;
4148;SDS011;2088;51.032;7.082;2022-10-04T17:52:28;2.07;;;1.50;;
4148;SDS011;2088;51.032;7.082;2022-10-04T17:55:24;2.20;;;2.00;;
4148;SDS011;2088;51.032;7.082;2022-10-04T17:57:54;6.10;;;2.50;;
4148;SDS011;2088;51.032;7.082;2022-10-04T18:00:26;1.87;;;1.57;;
4148;SDS011;2088;51.032;7.082;2022-10-04T18:03:15;3.87;;;1.70;;
4148;SDS011;2088;51.032;7.082;2022-10-04T18:05:45;7.97;;;2.53;;
4148;SDS011;2088;51.032;7.082;2022-10-04T18:08:18;3.70;;;1.80;;